Time;durP1;ratioP1;P1;durP2;ratioP2;P2;SDS_P1;SDS_P2;PMS_P1;PMS_P2;Temp;Humidity;BMP_temperature;BMP_pressure;BME280_temperature;BME280_humidity;BME280_pressure;Samples;Min_cycle;Max_cycle;Signal;HPM_P1;HPM_P2
2022/08/27 00:01:28;;;;;;;11.30;9.70;;;;;;;17.55;75.25;99837.10;130496;1268;108127;-80
2022/08/27 00:04:33;;;;;;;10.90;9.10;;;;;;;17.49;75.08;99836.82;130496;1268;108835;-80
2022/08/27 00:07:39;;;;;;;10.60;8.70;;;;;;;17.39;75.15;99835.75;130446;1268;108505;-79
2022/08/27 00:10:45;;;;;;;9.90;8.40;;;;;;;17.28;75.41;99837.94;130364;1267;107158;-79
2022/08/27 00:13:51;;;;;;;10.50;9.30;;;;;;;17.25;75.59;99835.79;130372;1267;108888;-80
2022/08/27 00:16:57;;;;;;;11.70;9.50;;;;;;;17.30;75.68;99842.46;130492;1267;108963;-80
2022/08/27 00:20:03;;;;;;;15.70;9.50;;;;;;;17.33;75.50;99836.02;129191;1268;1623107;-80
2022/08/27 00:23:08;;;;;;;12.10;10.20;;;;;;;17.32;75.36;99838.64;130458;1268;108982;-80
2022/08/27 00:26:16;;;;;;;12.20;10.50;;;;;;;17.23;75.37;99839.05;130500;1268;109718;-79
2022/08/27 00:29:21;;;;;;;11.10;9.50;;;;;;;17.18;75.68;99835.33;130402;1268;108819;-79
2022/08/27 00:32:27;;;;;;;13.30;9.50;;;;;;;17.12;75.56;99838.27;130494;1268;108727;-80
2022/08/27 00:35:32;;;;;;;11.20;9.50;;;;;;;17.07;75.59;99837.80;130537;1268;108873;-79
2022/08/27 00:38:39;;;;;;;11.50;9.40;;;;;;;17.00;75.67;99836.97;130353;1267;108628;-81
2022/08/27 00:41:45;;;;;;;11.40;9.80;;;;;;;16.95;75.70;99838.29;130520;1267;108599;-81
2022/08/27 00:44:50;;;;;;;12.90;10.20;;;;;;;16.89;75.62;99837.52;130485;1267;108771;-80
2022/08/27 00:47:59;;;;;;;12.20;9.70;;;;;;;16.85;75.86;99833.95;130449;1268;108982;-82
2022/08/27 00:51:06;;;;;;;12.10;9.40;;;;;;;16.82;75.75;99833.04;130426;1268;108454;-80
2022/08/27 00:54:12;;;;;;;11.30;8.80;;;;;;;16.71;75.66;99833.39;130382;1268;108623;-79
2022/08/27 00:57:19;;;;;;;12.70;8.90;;;;;;;16.64;75.97;99832.67;130391;1268;108785;-79
2022/08/27 01:00:24;;;;;;;12.40;9.10;;;;;;;16.66;76.05;99831.02;130367;1268;108529;-79
2022/08/27 01:03:30;;;;;;;12.30;9.40;;;;;;;16.60;75.96;99827.52;130467;1268;108782;-80
2022/08/27 01:06:38;;;;;;;10.20;9.10;;;;;;;16.55;76.17;99830.37;130435;1268;108658;-79
2022/08/27 01:09:45;;;;;;;12.80;9.90;;;;;;;16.58;76.29;99827.92;130392;1268;109260;-79
2022/08/27 01:12:53;;;;;;;13.70;9.20;;;;;;;16.59;76.35;99831.95;130314;1268;108791;-79
2022/08/27 01:15:59;;;;;;;10.40;9.20;;;;;;;16.60;76.20;99830.63;130347;1268;109121;-79
2022/08/27 01:19:09;;;;;;;11.10;8.50;;;;;;;16.55;76.19;99830.78;130355;1268;107336;-79
2022/08/27 01:22:25;;;;;;;13.10;9.40;;;;;;;16.52;76.21;99832.56;130398;1268;108757;-79
2022/08/27 01:25:31;;;;;;;10.70;8.90;;;;;;;16.51;76.45;99831.77;130483;1268;108567;-79
2022/08/27 01:28:38;;;;;;;13.70;9.60;;;;;;;16.53;76.50;99836.41;130506;1267;108628;-79
2022/08/27 01:31:43;;;;;;;10.60;9.30;;;;;;;16.50;76.42;99831.31;130492;1268;108750;-81
2022/08/27 01:34:50;;;;;;;11.90;8.10;;;;;;;16.47;76.34;99825.77;130572;1268;110017;-80
2022/08/27 01:37:56;;;;;;;10.70;8.10;;;;;;;16.40;76.33;99817.40;130539;1266;108859;-79
2022/08/27 01:41:02;;;;;;;10.50;8.60;;;;;;;16.37;76.48;99816.84;130459;1266;108990;-79
2022/08/27 01:44:07;;;;;;;11.20;9.00;;;;;;;16.37;76.61;99817.05;130484;1268;108830;-79
2022/08/27 01:47:13;;;;;;;9.70;8.50;;;;;;;16.36;76.56;99814.70;130553;1268;108873;-79
2022/08/27 01:50:21;;;;;;;12.10;9.30;;;;;;;16.31;76.57;99816.44;130491;1267;108735;-79
2022/08/27 01:53:27;;;;;;;10.50;8.90;;;;;;;16.29;76.56;99820.46;130416;1268;108647;-78
2022/08/27 01:56:33;;;;;;;9.00;7.90;;;;;;;16.22;76.44;99816.58;130442;1266;108587;-80
2022/08/27 01:59:38;;;;;;;10.30;8.40;;;;;;;16.14;76.40;99820.60;130499;1268;108899;-80
2022/08/27 02:02:45;;;;;;;8.80;7.90;;;;;;;16.10;76.68;99822.36;130422;1268;108725;-80
2022/08/27 02:05:51;;;;;;;9.90;8.50;;;;;;;16.03;76.54;99822.99;130474;1267;108682;-79
2022/08/27 02:08:56;;;;;;;11.30;8.70;;;;;;;16.01;76.72;99821.25;130584;1267;108701;-80
2022/08/27 02:12:02;;;;;;;10.70;8.50;;;;;;;15.96;76.53;99821.72;130537;1268;108887;-80
2022/08/27 02:15:09;;;;;;;10.50;8.70;;;;;;;15.92;76.77;99820.77;130432;1268;108988;-80
2022/08/27 02:18:16;;;;;;;10.20;8.00;;;;;;;15.93;77.03;99819.05;130525;1268;108902;-80
2022/08/27 02:21:21;;;;;;;13.40;8.50;;;;;;;15.93;76.97;99817.80;130436;1268;108539;-80
2022/08/27 02:24:28;;;;;;;9.70;7.90;;;;;;;15.92;77.11;99815.20;130376;1268;108629;-79
2022/08/27 02:27:33;;;;;;;11.60;8.60;;;;;;;15.96;77.08;99813.27;130569;1267;108896;-80
2022/08/27 02:30:39;;;;;;;12.90;8.60;;;;;;;16.02;77.21;99813.27;130542;1268;108972;-79
2022/08/27 02:33:44;;;;;;;10.60;9.00;;;;;;;16.01;76.88;99811.86;130474;1267;108781;-79
2022/08/27 02:36:51;;;;;;;11.20;9.00;;;;;;;15.96;76.75;99815.54;130458;1268;108810;-79
2022/08/27 02:39:57;;;;;;;9.40;8.00;;;;;;;15.89;76.99;99818.95;130380;1267;108895;-79
2022/08/27 02:43:02;;;;;;;8.90;7.30;;;;;;;15.89;76.99;99821.73;130339;1268;108506;-79
2022/08/27 02:46:09;;;;;;;9.00;8.00;;;;;;;15.84;76.92;99820.31;130388;1268;108925;-79
2022/08/27 02:49:15;;;;;;;9.80;8.10;;;;;;;15.81;77.07;99820.30;130432;1268;108645;-79
2022/08/27 02:52:20;;;;;;;9.00;8.00;;;;;;;15.76;77.15;99824.70;130398;1268;109034;-79
2022/08/27 02:55:27;;;;;;;8.80;7.60;;;;;;;15.76;77.18;99823.96;130366;1268;108751;-79
2022/08/27 02:58:33;;;;;;;10.00;8.40;;;;;;;15.77;77.14;99822.35;130401;1268;108577;-79
2022/08/27 03:01:38;;;;;;;11.10;8.20;;;;;;;15.72;77.24;99824.79;130394;1268;108580;-79
2022/08/27 03:04:44;;;;;;;10.90;7.80;;;;;;;15.64;77.42;99826.16;130413;1268;109090;-79
2022/08/27 03:07:49;;;;;;;8.60;7.50;;;;;;;15.65;77.57;99825.23;130450;1268;108778;-79
2022/08/27 03:10:55;;;;;;;9.90;8.30;;;;;;;15.68;77.35;99828.31;130477;1268;108826;-79
2022/08/27 03:14:01;;;;;;;9.50;7.70;;;;;;;15.61;77.26;99828.02;130333;1268;107726;-79
2022/08/27 03:20:27;;;;;;;10.20;8.00;;;;;;;15.46;76.91;99825.42;130413;1268;108873;-80
2022/08/27 03:23:34;;;;;;;10.30;7.90;;;;;;;15.32;77.16;99826.56;130362;1268;108697;-79
2022/08/27 03:26:40;;;;;;;7.50;6.70;;;;;;;15.30;77.40;99829.15;130471;1268;108936;-79
2022/08/27 03:29:45;;;;;;;10.70;7.90;;;;;;;15.33;77.60;99829.88;130356;1268;109156;-78
2022/08/27 03:32:51;;;;;;;8.30;7.40;;;;;;;15.37;77.77;99827.59;130421;1268;108871;-80
2022/08/27 03:35:57;;;;;;;10.50;8.30;;;;;;;15.42;77.79;99828.46;130420;1268;108781;-80
2022/08/27 03:39:03;;;;;;;8.70;7.90;;;;;;;15.46;77.82;99824.81;130563;1267;108786;-80
2022/08/27 03:42:09;;;;;;;11.80;8.70;;;;;;;15.47;77.66;99820.42;130537;1268;108678;-81
2022/08/27 03:45:15;;;;;;;11.20;8.10;;;;;;;15.45;77.77;99822.30;130492;1267;108630;-80
2022/08/27 03:48:20;;;;;;;8.90;7.30;;;;;;;15.42;77.87;99826.05;130560;1267;109798;-80
2022/08/27 03:51:26;;;;;;;11.60;7.80;;;;;;;15.38;77.59;99824.30;130549;1268;108709;-80
2022/08/27 03:54:33;;;;;;;9.10;7.80;;;;;;;15.40;77.89;99819.00;130449;1268;109027;-79
2022/08/27 03:57:39;;;;;;;10.20;8.90;;;;;;;15.44;77.85;99816.85;130494;1266;108644;-79
2022/08/27 04:00:45;;;;;;;9.50;8.40;;;;;;;15.45;78.09;99815.33;130491;1268;108911;-80
2022/08/27 04:03:51;;;;;;;11.20;8.50;;;;;;;15.45;78.07;99821.07;130527;1268;108725;-81
2022/08/27 04:06:56;;;;;;;10.10;7.80;;;;;;;15.40;77.82;99821.90;130485;1268;108686;-80
2022/08/27 04:10:01;;;;;;;11.00;7.60;;;;;;;15.39;77.96;99822.67;130486;1266;108718;-81
2022/08/27 04:13:07;;;;;;;9.80;8.50;;;;;;;15.41;78.16;99822.41;130396;1268;107718;-79
2022/08/27 04:16:13;;;;;;;11.40;8.00;;;;;;;15.47;78.12;99821.90;130323;1267;108726;-81
2022/08/27 04:19:18;;;;;;;9.50;8.60;;;;;;;15.49;78.07;99819.73;130347;1268;108785;-81
2022/08/27 04:22:23;;;;;;;12.00;8.40;;;;;;;15.54;78.20;99822.17;130493;1268;108676;-80
2022/08/27 04:25:29;;;;;;;11.60;8.20;;;;;;;15.59;78.30;99823.20;130452;1267;108731;-80
2022/08/27 04:28:34;;;;;;;8.40;7.50;;;;;;;15.62;78.24;99821.55;130375;1268;108000;-79
2022/08/27 04:31:39;;;;;;;9.50;7.50;;;;;;;15.63;78.34;99824.97;130390;1267;108844;-81
2022/08/27 04:34:45;;;;;;;10.90;7.80;;;;;;;15.66;78.32;99817.83;130513;1268;109016;-80
2022/08/27 04:37:50;;;;;;;9.80;8.00;;;;;;;15.77;78.39;99817.00;130412;1267;108912;-80
2022/08/27 04:44:19;;;;;;;11.10;8.80;;;;;;;16.17;78.40;99817.73;130464;1268;108497;-80
2022/08/27 04:47:24;;;;;;;10.40;8.40;;;;;;;16.32;78.44;99814.00;130453;1267;108956;-80
2022/08/27 04:50:30;;;;;;;10.30;8.90;;;;;;;16.44;78.53;99814.48;130553;1268;108847;-80
2022/08/27 04:53:35;;;;;;;10.20;8.90;;;;;;;16.57;78.46;99814.09;130472;1268;108975;-80
2022/08/27 04:56:41;;;;;;;10.80;9.00;;;;;;;16.68;78.26;99813.49;130499;1268;108654;-80
2022/08/27 04:59:46;;;;;;;9.60;8.60;;;;;;;16.82;78.67;99815.86;130492;1267;106819;-80
2022/08/27 05:08:11;;;;;;;10.90;7.40;;;;;;;17.36;78.56;99821.39;130510;1268;109152;-78
2022/08/27 05:11:19;;;;;;;9.50;8.40;;;;;;;17.50;78.56;99824.48;130373;1267;107526;-79
2022/08/27 05:14:28;;;;;;;11.40;9.90;;;;;;;17.66;78.81;99820.73;130332;1268;108638;-79
2022/08/27 05:17:35;;;;;;;10.60;8.80;;;;;;;17.86;78.76;99819.63;130508;1265;108716;-77
2022/08/27 05:20:46;;;;;;;9.00;8.00;;;;;;;18.02;78.79;99816.86;130579;1265;108938;-80
2022/08/27 05:23:53;;;;;;;8.60;7.70;;;;;;;18.18;78.89;99818.35;130685;1268;108704;-80
2022/08/27 05:26:58;;;;;;;10.50;7.70;;;;;;;18.31;78.98;99819.29;130519;1267;108894;-80
2022/08/27 05:30:03;;;;;;;9.60;8.30;;;;;;;18.45;79.21;99810.58;130534;1267;109074;-81
2022/08/27 05:33:09;;;;;;;12.30;10.50;;;;;;;18.62;79.13;99811.73;130537;1266;108777;-79
2022/08/27 05:36:19;;;;;;;10.80;9.40;;;;;;;18.79;79.10;99810.15;130532;1268;108766;-80
2022/08/27 05:39:24;;;;;;;11.90;9.20;;;;;;;18.94;79.23;99809.98;130649;1266;108097;-81
2022/08/27 05:42:33;;;;;;;9.80;8.10;;;;;;;19.07;79.38;99809.60;130654;1268;107789;-81
2022/08/27 05:45:43;;;;;;;9.50;7.70;;;;;;;19.19;79.20;99808.80;130454;1267;107744;-84
2022/08/27 05:48:49;;;;;;;11.00;8.60;;;;;;;19.34;79.14;99811.34;130582;1268;108970;-85
2022/08/27 05:51:54;;;;;;;11.10;8.20;;;;;;;19.49;78.75;99812.16;130581;1266;107113;-87
2022/08/27 05:55:00;;;;;;;12.90;10.00;;;;;;;19.67;78.66;99811.29;130604;1268;108878;-88
2022/08/27 05:58:05;;;;;;;13.50;10.60;;;;;;;19.79;78.41;99808.52;130511;1267;108277;-89
2022/08/27 06:01:12;;;;;;;12.30;11.00;;;;;;;19.89;78.73;99802.37;130796;1266;105950;-87
2022/08/27 06:04:19;;;;;;;13.10;10.50;;;;;;;19.96;78.93;99801.48;130473;1268;108714;-87
2022/08/27 06:07:25;;;;;;;15.20;10.20;;;;;;;20.05;78.70;99801.73;130771;1268;108760;-82
2022/08/27 06:10:30;;;;;;;11.60;9.40;;;;;;;20.16;78.51;99799.73;130652;1265;107688;-87
2022/08/27 06:13:37;;;;;;;11.40;9.10;;;;;;;20.30;78.54;99804.34;130685;1267;108907;-76
2022/08/27 06:16:43;;;;;;;11.20;9.70;;;;;;;20.44;78.32;99806.29;130590;1267;108820;-78
2022/08/27 06:19:48;;;;;;;11.20;9.80;;;;;;;20.55;78.26;99800.10;130501;1268;108848;-80
2022/08/27 06:22:54;;;;;;;11.60;9.70;;;;;;;20.65;77.94;99792.85;130539;1267;108546;-81
2022/08/27 06:26:00;;;;;;;11.70;9.70;;;;;;;20.73;77.75;99791.44;130693;1268;108712;-80
2022/08/27 06:29:07;;;;;;;16.80;10.30;;;;;;;20.81;77.71;99794.84;130596;1266;108693;-81
2022/08/27 06:32:13;;;;;;;13.80;9.10;;;;;;;20.87;77.43;99796.41;130611;1265;108847;-80
2022/08/27 06:35:19;;;;;;;11.20;9.60;;;;;;;20.98;77.62;99796.15;130458;1266;109145;-78
2022/08/27 06:38:25;;;;;;;16.90;9.70;;;;;;;21.10;77.41;99792.66;130579;1265;108733;-81
2022/08/27 06:41:31;;;;;;;11.40;9.60;;;;;;;21.21;76.92;99793.86;130557;1266;108693;-80
2022/08/27 06:44:36;;;;;;;12.10;10.50;;;;;;;21.31;76.96;99793.48;130687;1265;109002;-83
2022/08/27 06:47:42;;;;;;;12.10;10.20;;;;;;;21.44;76.70;99792.06;130805;1265;108873;-82
2022/08/27 06:50:50;;;;;;;12.00;9.90;;;;;;;21.53;76.40;99793.16;130744;1268;106935;-78
2022/08/27 06:53:57;;;;;;;11.30;10.00;;;;;;;21.62;76.20;99795.98;130479;1265;108781;-78
2022/08/27 06:57:02;;;;;;;11.40;9.50;;;;;;;21.70;76.25;99796.41;130515;1266;108804;-80
2022/08/27 07:00:11;;;;;;;11.20;9.40;;;;;;;21.78;76.31;99799.73;130649;1265;108641;-81
2022/08/27 07:03:16;;;;;;;12.30;9.50;;;;;;;21.86;75.98;99799.15;130662;1267;108701;-81
2022/08/27 07:06:22;;;;;;;15.20;10.20;;;;;;;21.98;75.91;99798.14;130696;1267;108892;-81
2022/08/27 07:09:30;;;;;;;11.50;9.60;;;;;;;22.08;75.56;99794.81;130589;1267;107125;-81
2022/08/27 07:12:36;;;;;;;10.40;9.40;;;;;;;22.17;75.62;99795.98;130332;1268;108546;-81
2022/08/27 07:15:41;;;;;;;11.80;9.90;;;;;;;22.29;75.58;99796.73;130427;1268;108796;-81
2022/08/27 07:18:49;;;;;;;12.30;9.60;;;;;;;22.40;75.26;99796.85;130283;1268;108687;-80
2022/08/27 07:21:55;;;;;;;13.60;9.90;;;;;;;22.48;75.04;99796.45;130396;1267;108547;-82
2022/08/27 07:25:00;;;;;;;11.20;9.20;;;;;;;22.56;74.92;99789.92;130423;1268;108804;-80
2022/08/27 07:28:06;;;;;;;12.20;9.20;;;;;;;22.64;74.79;99790.61;130508;1268;107651;-89
2022/08/27 07:31:15;;;;;;;11.90;9.20;;;;;;;22.75;74.36;99791.83;130583;1267;108620;-88
2022/08/27 07:34:21;;;;;;;10.80;9.20;;;;;;;22.84;73.93;99792.16;130843;1267;108089;-89
2022/08/27 07:37:26;;;;;;;11.90;8.60;;;;;;;22.93;73.83;99795.97;130945;1267;109194;-85
2022/08/27 07:40:32;;;;;;;9.60;7.70;;;;;;;23.00;73.39;99792.89;130404;1266;108816;-85
2022/08/27 07:47:01;;;;;;;12.80;10.40;;;;;;;23.16;72.42;99788.70;130366;1268;108575;-85
2022/08/27 07:50:08;;;;;;;10.00;9.00;;;;;;;23.23;72.80;99789.08;130434;1268;108567;-88
2022/08/27 07:53:13;;;;;;;11.50;10.30;;;;;;;23.30;72.78;99788.05;130421;1267;108595;-88
2022/08/27 07:56:18;;;;;;;10.40;9.10;;;;;;;23.36;72.62;99784.94;130403;1267;108758;-84
2022/08/27 07:59:25;;;;;;;12.30;9.10;;;;;;;23.42;72.34;99781.64;130282;1268;108733;-86
2022/08/27 08:02:31;;;;;;;9.90;8.50;;;;;;;23.48;72.36;99779.50;130368;1268;108678;-86
2022/08/27 08:05:40;;;;;;;12.80;8.90;;;;;;;23.56;72.32;99784.96;130346;1268;109272;-88
2022/08/27 08:08:46;;;;;;;8.90;7.90;;;;;;;23.62;71.84;99784.05;130430;1267;108719;-86
2022/08/27 08:11:52;;;;;;;11.40;8.90;;;;;;;23.71;71.22;99779.02;130562;1268;108621;-82
2022/08/27 08:14:57;;;;;;;13.00;9.00;;;;;;;23.84;71.04;99783.64;130528;1268;108742;-85
2022/08/27 08:18:03;;;;;;;11.10;8.70;;;;;;;23.94;70.88;99782.67;130638;1268;107406;-85
2022/08/27 08:21:11;;;;;;;10.30;8.70;;;;;;;24.03;70.66;99781.40;130539;1268;108803;-84
2022/08/27 08:24:17;;;;;;;10.60;8.70;;;;;;;24.17;69.69;99779.14;130550;1267;108724;-84
2022/08/27 08:27:23;;;;;;;13.50;9.50;;;;;;;24.35;70.28;99776.88;130552;1268;107540;-83
2022/08/27 08:30:29;;;;;;;12.70;9.30;;;;;;;24.48;69.50;99772.56;130612;1268;108602;-85
2022/08/27 08:33:35;;;;;;;10.70;8.50;;;;;;;24.57;68.80;99777.15;130550;1268;108689;-84
2022/08/27 08:36:40;;;;;;;12.00;8.70;;;;;;;24.62;69.04;99775.95;130547;1268;108683;-83
2022/08/27 08:39:46;;;;;;;11.80;8.40;;;;;;;24.64;68.50;99773.94;130443;1268;107513;-83
2022/08/27 08:42:55;;;;;;;10.20;8.50;;;;;;;24.71;67.71;99774.82;130355;1268;108884;-85
2022/08/27 08:46:08;;;;;;;11.40;8.50;;;;;;;24.79;67.66;99775.77;130418;1268;108942;-84
2022/08/27 08:49:27;;;;;;;11.60;8.80;;;;;;;24.85;67.14;99777.02;130486;1268;108822;-86
2022/08/27 08:52:46;;;;;;;10.40;8.20;;;;;;;24.90;67.02;99779.48;130442;1268;108617;-84
2022/08/27 08:55:56;;;;;;;9.90;8.30;;;;;;;24.97;66.60;99780.73;130322;1268;108794;-84
2022/08/27 08:59:09;;;;;;;9.40;8.30;;;;;;;25.05;65.76;99783.64;130518;1268;108500;-85
2022/08/27 09:02:17;;;;;;;10.00;7.80;;;;;;;25.15;64.96;99784.70;130431;1267;108462;-83
2022/08/27 09:05:24;;;;;;;10.00;8.30;;;;;;;25.27;65.24;99786.46;130430;1267;108990;-84
2022/08/27 09:08:33;;;;;;;12.60;8.00;;;;;;;25.34;64.37;99787.16;130429;1268;108700;-83
2022/08/27 09:11:48;;;;;;;10.60;7.80;;;;;;;25.43;64.08;99787.73;130360;1268;109144;-84
2022/08/27 09:14:59;;;;;;;8.90;8.10;;;;;;;25.52;64.39;99789.52;130453;1268;108955;-83
2022/08/27 09:18:12;;;;;;;8.90;8.00;;;;;;;25.54;64.69;99788.77;130467;1268;107216;-84
2022/08/27 09:21:31;;;;;;;8.30;7.50;;;;;;;25.52;64.52;99790.02;130388;1267;108975;-84
2022/08/27 09:24:45;;;;;;;8.70;7.20;;;;;;;25.53;63.22;99786.59;130429;1268;108777;-84
2022/08/27 09:27:54;;;;;;;10.90;8.10;;;;;;;25.60;64.41;99787.45;130372;1267;108914;-84
2022/08/27 09:31:06;;;;;;;9.50;7.70;;;;;;;25.62;64.06;99786.52;130421;1267;108925;-84
2022/08/27 09:34:11;;;;;;;8.60;7.70;;;;;;;25.57;63.92;99784.10;130639;1267;108730;-84
2022/08/27 09:37:20;;;;;;;10.40;7.80;;;;;;;25.63;63.36;99776.70;130471;1268;108858;-84
2022/08/27 09:40:31;;;;;;;10.70;7.90;;;;;;;25.74;63.33;99782.06;130435;1268;108678;-84
2022/08/27 09:43:42;;;;;;;10.20;7.50;;;;;;;25.83;63.01;99776.21;130563;1267;108809;-72
2022/08/27 09:46:58;;;;;;;8.40;7.30;;;;;;;25.91;62.60;99772.65;130307;1267;108578;-69
2022/08/27 09:50:08;;;;;;;10.70;7.20;;;;;;;25.99;62.92;99768.48;130313;1268;108870;-70
2022/08/27 09:53:24;;;;;;;11.10;7.70;;;;;;;26.06;62.67;99765.17;130199;1268;108833;-70
2022/08/27 09:56:33;;;;;;;10.00;8.30;;;;;;;26.13;62.69;99764.33;130262;1267;108651;-69
2022/08/27 09:59:43;;;;;;;11.90;8.00;;;;;;;26.20;62.59;99760.64;130225;1267;108537;-69
2022/08/27 10:02:54;;;;;;;9.00;7.30;;;;;;;26.25;62.31;99758.08;130186;1268;109498;-69
2022/08/27 10:06:00;;;;;;;10.50;7.50;;;;;;;26.31;61.93;99757.88;130218;1268;108967;-69
2022/08/27 10:09:13;;;;;;;8.10;7.30;;;;;;;26.42;62.20;99762.83;130193;1267;108640;-69
2022/08/27 10:12:23;;;;;;;9.00;7.10;;;;;;;26.52;62.11;99758.52;130286;1267;108776;-72
2022/08/27 10:15:34;;;;;;;9.10;7.70;;;;;;;26.59;61.68;99760.85;130185;1268;108599;-69
2022/08/27 10:18:47;;;;;;;14.70;7.90;;;;;;;26.61;61.68;99763.66;130205;1267;108704;-69
2022/08/27 10:22:00;;;;;;;10.40;7.70;;;;;;;26.63;61.22;99759.06;130249;1268;108534;-69
2022/08/27 10:25:16;;;;;;;11.60;7.90;;;;;;;26.68;61.19;99759.19;130201;1268;108787;-70
2022/08/27 10:28:35;;;;;;;9.70;7.50;;;;;;;26.73;61.14;99752.01;130227;1267;109159;-71
2022/08/27 10:31:51;;;;;;;11.40;7.90;;;;;;;26.82;61.29;99750.81;130212;1268;108769;-70
2022/08/27 10:35:08;;;;;;;9.10;7.70;;;;;;;26.86;60.88;99756.79;130195;1268;110398;-70
2022/08/27 10:38:21;;;;;;;9.60;7.00;;;;;;;26.90;60.33;99756.78;130242;1268;109528;-70
2022/08/27 10:41:34;;;;;;;13.50;7.60;;;;;;;26.93;60.64;99758.80;130260;1268;109851;-70
2022/08/27 10:44:49;;;;;;;9.00;7.80;;;;;;;26.96;60.73;99757.38;130249;1268;108760;-70
2022/08/27 10:48:06;;;;;;;9.30;8.40;;;;;;;27.05;60.87;99750.76;130274;1267;108798;-70
2022/08/27 10:51:19;;;;;;;11.50;7.80;;;;;;;27.10;60.34;99752.45;130289;1266;108471;-76
2022/08/27 10:54:32;;;;;;;9.20;7.80;;;;;;;27.12;60.54;99752.79;130231;1268;109632;-71
2022/08/27 10:57:55;;;;;;;9.20;7.40;;;;;;;27.16;60.29;99752.94;130367;1266;108710;-72
2022/08/27 11:01:06;;;;;;;8.40;7.20;;;;;;;27.20;59.46;99752.16;130256;1268;108799;-69
2022/08/27 11:04:18;;;;;;;7.90;7.10;;;;;;;27.21;59.51;99751.83;130255;1266;108769;-70
2022/08/27 11:07:28;;;;;;;9.40;7.00;;;;;;;27.24;59.37;99754.35;130240;1268;107092;-70
2022/08/27 11:10:36;;;;;;;8.40;7.60;;;;;;;27.27;59.25;99755.69;130370;1265;108750;-70
2022/08/27 11:13:46;;;;;;;9.20;7.20;;;;;;;27.32;59.37;99755.63;130205;1265;108644;-70
2022/08/27 11:16:58;;;;;;;12.90;7.90;;;;;;;27.42;59.41;99757.70;130170;1265;108732;-70
2022/08/27 11:20:10;;;;;;;8.70;6.50;;;;;;;27.45;58.69;99756.33;130337;1265;108451;-69
2022/08/27 11:23:19;;;;;;;9.30;6.40;;;;;;;27.45;57.75;99754.85;130418;1265;108992;-69
2022/08/27 11:26:25;;;;;;;8.30;6.30;;;;;;;27.54;55.69;99754.65;130319;1265;109661;-70
2022/08/27 11:29:34;;;;;;;9.00;6.20;;;;;;;27.64;56.64;99750.73;130296;1265;107588;-69
2022/08/27 11:32:57;;;;;;;7.60;5.90;;;;;;;27.69;56.64;99754.06;130349;1265;108491;-70
2022/08/27 11:36:19;;;;;;;8.90;6.10;;;;;;;27.69;56.23;99750.77;130428;1265;108783;-69
2022/08/27 11:39:35;;;;;;;8.60;5.90;;;;;;;27.71;55.83;99748.09;130354;1265;109885;-73
2022/08/27 11:42:47;;;;;;;7.20;5.30;;;;;;;27.73;55.69;99746.37;130480;1265;108380;-73
2022/08/27 11:45:59;;;;;;;8.90;5.50;;;;;;;27.77;55.34;99751.80;130465;1265;108511;-73
2022/08/27 11:49:05;;;;;;;9.40;5.80;;;;;;;27.86;55.60;99750.73;130428;1265;107828;-72
2022/08/27 11:52:10;;;;;;;7.60;5.40;;;;;;;27.94;55.21;99742.60;130442;1265;108723;-73
2022/08/27 11:55:29;;;;;;;8.90;5.30;;;;;;;27.96;54.32;99737.65;130541;1265;108682;-74
2022/08/27 11:58:34;;;;;;;9.40;4.40;;;;;;;28.02;54.59;99734.61;130576;1265;108904;-69
2022/08/27 12:01:39;;;;;;;7.10;4.30;;;;;;;28.08;53.84;99731.89;130249;1268;108735;-69
2022/08/27 12:04:46;;;;;;;5.20;4.50;;;;;;;28.10;53.10;99731.83;130497;1265;108695;-70
2022/08/27 12:07:53;;;;;;;6.00;4.10;;;;;;;28.11;52.41;99731.81;130390;1265;109137;-69
2022/08/27 12:11:14;;;;;;;8.80;4.40;;;;;;;28.13;51.89;99732.96;130426;1265;108806;-68
2022/08/27 12:14:25;;;;;;;;;;;;;;;28.13;51.37;99728.19;130410;1268;109000;-69
2022/08/27 12:17:40;;;;;;;14.40;7.40;;;;;;;28.16;51.21;99731.19;130327;1268;108671;-69
2022/08/27 12:20:56;;;;;;;11.60;4.80;;;;;;;28.22;51.13;99723.03;129470;1268;1335637;-70
2022/08/27 12:24:17;;;;;;;7.90;4.00;;;;;;;28.21;49.86;99726.29;130356;1268;108911;-70
2022/08/27 12:27:34;;;;;;;7.00;3.70;;;;;;;28.18;49.41;99725.20;130325;1268;110586;-70
2022/08/27 12:30:49;;;;;;;8.40;4.20;;;;;;;28.16;49.25;99722.91;130377;1268;108669;-70
2022/08/27 12:33:55;;;;;;;8.30;4.80;;;;;;;28.14;49.61;99725.77;130256;1268;108731;-70
2022/08/27 12:37:03;;;;;;;8.40;4.20;;;;;;;28.15;49.51;99724.61;130412;1267;108762;-69
2022/08/27 12:40:17;;;;;;;7.30;4.40;;;;;;;28.14;48.97;99722.97;130393;1268;108055;-73
2022/08/27 12:43:25;;;;;;;12.40;4.60;;;;;;;28.16;49.05;99714.67;130321;1268;108620;-69
2022/08/27 12:46:30;;;;;;;7.00;4.10;;;;;;;28.17;48.52;99716.75;130305;1268;107798;-81
2022/08/27 12:49:41;;;;;;;6.40;4.50;;;;;;;28.18;47.91;99714.77;130552;1267;108049;-78
2022/08/27 12:53:00;;;;;;;8.10;4.50;;;;;;;28.07;47.67;99717.96;130499;1268;108724;-81
2022/08/27 12:56:32;;;;;;;6.20;4.40;;;;;;;28.04;47.35;99717.80;130639;1268;108583;-87
2022/08/27 13:00:06;;;;;;;8.70;4.40;;;;;;;28.01;47.30;99713.22;130583;1267;108587;-83
2022/08/27 13:03:29;;;;;;;7.00;4.30;;;;;;;28.03;47.36;99710.24;130636;1268;108780;-84
2022/08/27 13:06:36;;;;;;;9.70;4.80;;;;;;;28.09;47.12;99709.17;130621;1268;108849;-84
2022/08/27 13:09:41;;;;;;;10.20;4.70;;;;;;;28.11;46.91;99705.93;130605;1267;109085;-83
2022/08/27 13:13:00;;;;;;;7.70;4.70;;;;;;;28.13;46.64;99705.91;130550;1266;108662;-85
2022/08/27 13:16:06;;;;;;;9.70;5.00;;;;;;;28.15;46.43;99700.36;130641;1267;108752;-82
2022/08/27 13:19:25;;;;;;;7.40;4.90;;;;;;;28.17;46.47;99700.30;130665;1267;109128;-82
2022/08/27 13:22:37;;;;;;;14.90;5.40;;;;;;;28.18;46.43;99700.30;130601;1267;108671;-82
2022/08/27 13:25:53;;;;;;;7.20;4.30;;;;;;;28.23;46.50;99700.64;130712;1265;109745;-84
2022/08/27 13:28:59;;;;;;;11.60;4.60;;;;;;;28.22;45.96;99699.67;130734;1265;108909;-85
2022/08/27 13:32:05;;;;;;;6.90;4.30;;;;;;;28.21;45.69;99698.19;130566;1265;107752;-78
2022/08/27 13:35:11;;;;;;;13.40;4.90;;;;;;;28.20;45.35;99699.02;130847;1265;108613;-79
2022/08/27 13:38:17;;;;;;;7.90;4.90;;;;;;;28.24;45.63;99695.10;130688;1265;108755;-77
2022/08/27 13:41:30;;;;;;;10.80;5.10;;;;;;;28.30;45.71;99697.47;130436;1268;108744;-79
2022/08/27 13:44:38;;;;;;;7.50;4.60;;;;;;;28.31;45.36;99697.46;130467;1268;108971;-76
2022/08/27 13:47:48;;;;;;;8.90;6.30;;;;;;;28.28;44.95;99696.70;130475;1267;107265;-80
2022/08/27 13:50:57;;;;;;;8.90;5.30;;;;;;;28.18;45.17;99699.48;130677;1266;109032;-80
2022/08/27 13:54:15;;;;;;;9.50;4.80;;;;;;;28.09;45.14;99696.95;130494;1268;107579;-81
2022/08/27 13:57:29;;;;;;;8.90;5.10;;;;;;;28.05;44.95;99691.41;130590;1268;108686;-78
2022/08/27 14:00:36;;;;;;;8.50;4.80;;;;;;;28.04;44.74;99691.42;130459;1268;108823;-79
2022/08/27 14:03:51;;;;;;;9.60;4.70;;;;;;;28.04;44.34;99693.02;130554;1268;108650;-79
2022/08/27 14:06:56;;;;;;;7.60;5.00;;;;;;;28.05;44.25;99686.43;130537;1267;108713;-78
2022/08/27 14:10:06;;;;;;;10.50;5.30;;;;;;;28.07;44.36;99689.22;130423;1268;108837;-78
2022/08/27 14:13:21;;;;;;;7.90;4.80;;;;;;;28.09;44.48;99685.96;130424;1268;108692;-78
2022/08/27 14:16:29;;;;;;;8.20;5.30;;;;;;;28.12;44.18;99687.48;130366;1267;108888;-77
2022/08/27 14:19:35;;;;;;;8.60;5.20;;;;;;;28.11;44.25;99685.64;130442;1268;108709;-78
2022/08/27 14:22:41;;;;;;;12.40;5.30;;;;;;;28.10;43.33;99685.10;130500;1268;108642;-78
2022/08/27 14:25:47;;;;;;;8.30;4.80;;;;;;;28.06;43.08;99682.48;130467;1268;108687;-77
2022/08/27 14:28:54;;;;;;;6.80;5.10;;;;;;;28.04;42.93;99675.03;130412;1268;108870;-76
2022/08/27 14:31:59;;;;;;;8.30;5.10;;;;;;;28.05;43.05;99680.73;130504;1267;108708;-75
2022/08/27 14:35:05;;;;;;;11.70;5.00;;;;;;;28.05;42.91;99680.17;130452;1267;108016;-76